Time;durP1;ratioP1;P1;durP2;ratioP2;P2;SDS_P1;SDS_P2;PMS_P1;PMS_P2;Temp;Humidity;BMP_temperature;BMP_pressure;BME280_temperature;BME280_humidity;BME280_pressure;Samples;Min_cycle;Max_cycle;Signal;HPM_P1;HPM_P2
2023/12/02 00:00:01;;;;;;;;;35.25;26.50;;;;;;;;5041130;28;45530;-69
2023/12/02 00:02:26;;;;;;;;;28.00;24.00;;;;;;;;5040031;28;45273;-68
2023/12/02 00:04:51;;;;;;;;;39.67;28.67;;;;;;;;5045852;28;46643;-68
2023/12/02 00:07:17;;;;;;;;;35.00;26.00;;;;;;;;5037828;28;45486;-69
2023/12/02 00:09:42;;;;;;;;;33.75;26.00;;;;;;;;5043960;28;45512;-68
2023/12/02 00:12:07;;;;;;;;;35.50;24.50;;;;;;;;5044974;28;45360;-69
2023/12/02 00:14:32;;;;;;;;;37.75;29.00;;;;;;;;5042920;28;45673;-69
2023/12/02 00:16:58;;;;;;;;;30.25;26.00;;;;;;;;5042189;28;45333;-70
2023/12/02 00:19:23;;;;;;;;;38.00;25.33;;;;;;;;5039228;28;45418;-69
2023/12/02 00:21:49;;;;;;;;;46.00;38.00;;;;;;;;5042930;28;45464;-69
2023/12/02 00:24:14;;;;;;;;;31.75;28.75;;;;;;;;5044633;28;46393;-68
2023/12/02 00:26:39;;;;;;;;;36.75;22.00;;;;;;;;5044095;28;45655;-68
2023/12/02 00:29:04;;;;;;;;;36.00;27.00;;;;;;;;5051753;28;45351;-69
2023/12/02 00:31:30;;;;;;;;;40.00;28.75;;;;;;;;5044767;28;45426;-67
2023/12/02 00:33:57;;;;;;;;;38.50;28.50;;;;;;;;5042212;28;45653;-69
2023/12/02 00:36:22;;;;;;;;;24.00;20.00;;;;;;;;5042483;28;45581;-69
2023/12/02 00:38:47;;;;;;;;;23.33;19.67;;;;;;;;5042388;28;45604;-68
2023/12/02 00:41:12;;;;;;;;;28.67;17.00;;;;;;;;5044695;28;45446;-69
2023/12/02 00:43:37;;;;;;;;;28.33;22.33;;;;;;;;5042863;28;46198;-69
2023/12/02 00:46:03;;;;;;;;;28.25;24.25;;;;;;;;5045009;28;45379;-70
2023/12/02 00:48:28;;;;;;;;;30.00;24.00;;;;;;;;5041011;28;45430;-68
2023/12/02 00:50:53;;;;;;;;;37.67;26.67;;;;;;;;5045219;28;45297;-71
2023/12/02 00:53:19;;;;;;;;;23.33;21.00;;;;;;;;5041220;28;45631;-69
2023/12/02 00:55:44;;;;;;;;;27.25;21.50;;;;;;;;5049858;28;45339;-69
2023/12/02 00:58:09;;;;;;;;;37.33;28.00;;;;;;;;5038038;28;45491;-69
2023/12/02 01:00:34;;;;;;;;;36.50;24.25;;;;;;;;5048769;28;45363;-70
2023/12/02 01:02:59;;;;;;;;;41.00;29.33;;;;;;;;5042222;28;45602;-68
2023/12/02 01:05:25;;;;;;;;;36.33;24.00;;;;;;;;5044564;28;45475;-68
2023/12/02 01:07:50;;;;;;;;;34.00;26.67;;;;;;;;5039257;28;45434;-68
2023/12/02 01:10:15;;;;;;;;;30.33;23.00;;;;;;;;5046601;28;45495;-71
2023/12/02 01:12:40;;;;;;;;;20.75;17.75;;;;;;;;5044249;28;47214;-68
2023/12/02 01:15:06;;;;;;;;;22.50;19.00;;;;;;;;5049790;28;45260;-69
2023/12/02 01:17:31;;;;;;;;;21.25;19.75;;;;;;;;5037824;28;45710;-69
2023/12/02 01:19:56;;;;;;;;;19.00;17.00;;;;;;;;5047498;28;45606;-68
2023/12/02 01:22:21;;;;;;;;;28.50;20.00;;;;;;;;5040134;28;47322;-68
2023/12/02 01:24:47;;;;;;;;;22.25;16.00;;;;;;;;5047565;28;45284;-68
2023/12/02 01:27:12;;;;;;;;;23.00;17.33;;;;;;;;5036836;28;45522;-72
2023/12/02 01:29:37;;;;;;;;;19.00;16.00;;;;;;;;5045834;28;45419;-69
2023/12/02 01:32:02;;;;;;;;;25.67;20.00;;;;;;;;5039041;28;46530;-68
2023/12/02 01:34:27;;;;;;;;;28.00;22.00;;;;;;;;5043338;28;45278;-70
2023/12/02 01:36:53;;;;;;;;;17.25;14.25;;;;;;;;5037267;28;45383;-68
2023/12/02 01:39:18;;;;;;;;;15.67;13.67;;;;;;;;5043454;28;45447;-69
2023/12/02 01:41:43;;;;;;;;;21.00;17.25;;;;;;;;5045142;28;46624;-71
2023/12/02 01:44:10;;;;;;;;;25.67;17.67;;;;;;;;5043499;28;45586;-68
2023/12/02 01:46:36;;;;;;;;;25.25;22.50;;;;;;;;5040609;28;45415;-68
2023/12/02 01:49:02;;;;;;;;;22.33;20.00;;;;;;;;5041105;28;45466;-68
2023/12/02 01:51:27;;;;;;;;;29.25;20.75;;;;;;;;5042390;28;47492;-72
2023/12/02 01:53:53;;;;;;;;;28.50;18.25;;;;;;;;5040498;28;45387;-69
2023/12/02 01:56:18;;;;;;;;;28.75;18.50;;;;;;;;5049787;28;45538;-68
2023/12/02 01:58:44;;;;;;;;;29.25;19.25;;;;;;;;5044302;28;45447;-68
2023/12/02 02:01:09;;;;;;;;;17.50;13.00;;;;;;;;5036089;28;45887;-69
2023/12/02 02:03:34;;;;;;;;;28.25;22.00;;;;;;;;5045783;28;45313;-68
2023/12/02 02:06:00;;;;;;;;;25.50;19.50;;;;;;;;5050750;28;45343;-68
2023/12/02 02:08:25;;;;;;;;;29.50;24.50;;;;;;;;5039380;28;45434;-68
2023/12/02 02:10:54;;;;;;;;;28.33;24.00;;;;;;;;5045283;28;47513;-70
2023/12/02 02:13:19;;;;;;;;;31.25;22.75;;;;;;;;5038638;28;45313;-69
2023/12/02 02:15:44;;;;;;;;;29.67;22.00;;;;;;;;5037948;28;45463;-69
2023/12/02 02:18:10;;;;;;;;;29.33;24.00;;;;;;;;5046104;28;45469;-70
2023/12/02 02:20:35;;;;;;;;;24.67;21.33;;;;;;;;5039821;28;45445;-68
2023/12/02 02:23:00;;;;;;;;;33.00;23.00;;;;;;;;5037717;28;45337;-70
2023/12/02 02:25:25;;;;;;;;;35.33;24.33;;;;;;;;5048070;28;45276;-68
2023/12/02 02:27:50;;;;;;;;;33.33;24.00;;;;;;;;5047967;28;45470;-71
2023/12/02 02:30:16;;;;;;;;;28.67;22.67;;;;;;;;5047513;28;46729;-68
2023/12/02 02:32:41;;;;;;;;;32.75;23.75;;;;;;;;5033924;28;45543;-68
2023/12/02 02:35:06;;;;;;;;;35.33;22.67;;;;;;;;5046021;28;45629;-72
2023/12/02 02:37:31;;;;;;;;;27.25;24.75;;;;;;;;5047183;28;45442;-71
2023/12/02 02:39:56;;;;;;;;;31.00;19.67;;;;;;;;5040047;28;45534;-68
2023/12/02 02:42:22;;;;;;;;;24.67;19.00;;;;;;;;5046380;28;45354;-71
2023/12/02 02:44:47;;;;;;;;;36.67;24.00;;;;;;;;5047236;28;45439;-69
2023/12/02 02:47:12;;;;;;;;;35.33;26.67;;;;;;;;5044204;28;45765;-68
2023/12/02 02:49:37;;;;;;;;;31.00;26.00;;;;;;;;5043152;28;45978;-69
2023/12/02 02:52:03;;;;;;;;;36.67;27.00;;;;;;;;5041648;28;45632;-68
2023/12/02 02:54:28;;;;;;;;;33.00;24.75;;;;;;;;5037271;28;45323;-72
2023/12/02 02:56:53;;;;;;;;;32.67;30.00;;;;;;;;5039034;28;45701;-68
2023/12/02 02:59:18;;;;;;;;;40.00;23.75;;;;;;;;5050328;28;45991;-68
2023/12/02 03:01:44;;;;;;;;;32.50;24.25;;;;;;;;5055192;28;45437;-68
2023/12/02 03:04:09;;;;;;;;;33.00;22.25;;;;;;;;5049784;28;45392;-69
2023/12/02 03:06:35;;;;;;;;;33.00;25.33;;;;;;;;5045726;28;45346;-67
2023/12/02 03:09:00;;;;;;;;;31.75;22.75;;;;;;;;5050137;28;45949;-68
2023/12/02 03:11:25;;;;;;;;;36.75;28.50;;;;;;;;5040403;28;45441;-69
2023/12/02 03:13:50;;;;;;;;;28.00;21.00;;;;;;;;5048761;28;45397;-68
2023/12/02 03:16:16;;;;;;;;;35.00;21.67;;;;;;;;5048723;28;45229;-70
2023/12/02 03:18:41;;;;;;;;;33.33;23.00;;;;;;;;5041352;28;45601;-71
2023/12/02 03:21:06;;;;;;;;;31.00;22.33;;;;;;;;5044490;28;45547;-68
2023/12/02 03:23:31;;;;;;;;;34.75;21.75;;;;;;;;5048036;28;45184;-70
2023/12/02 03:25:56;;;;;;;;;32.75;24.75;;;;;;;;5042346;28;45625;-69
2023/12/02 03:28:23;;;;;;;;;38.33;27.33;;;;;;;;5048443;28;46497;-69
2023/12/02 03:30:48;;;;;;;;;38.25;31.00;;;;;;;;5044780;28;45303;-68
2023/12/02 03:33:13;;;;;;;;;34.00;25.00;;;;;;;;5037798;28;45349;-69
2023/12/02 03:35:39;;;;;;;;;34.25;29.50;;;;;;;;5043714;28;45377;-68
2023/12/02 03:38:04;;;;;;;;;34.25;23.75;;;;;;;;5048744;28;46567;-68
2023/12/02 03:40:29;;;;;;;;;34.75;27.75;;;;;;;;5050430;28;45488;-71
2023/12/02 03:42:54;;;;;;;;;43.25;32.75;;;;;;;;5046326;28;45470;-68
2023/12/02 03:45:19;;;;;;;;;28.67;23.67;;;;;;;;5048660;28;45490;-70
2023/12/02 03:47:45;;;;;;;;;33.25;23.00;;;;;;;;5016661;28;46527;-71
2023/12/02 03:50:10;;;;;;;;;26.00;24.50;;;;;;;;5048627;28;45193;-69
2023/12/02 03:52:35;;;;;;;;;40.75;27.50;;;;;;;;5047289;28;45190;-72
2023/12/02 03:55:01;;;;;;;;;32.00;28.00;;;;;;;;5051350;28;45417;-70
2023/12/02 03:57:27;;;;;;;;;39.25;29.50;;;;;;;;5043686;28;46580;-68
2023/12/02 03:59:52;;;;;;;;;29.00;21.33;;;;;;;;5037631;28;45460;-68
2023/12/02 04:02:17;;;;;;;;;30.67;23.67;;;;;;;;5044102;28;45458;-71
2023/12/02 04:04:42;;;;;;;;;33.00;27.67;;;;;;;;5042576;28;45404;-70
2023/12/02 04:07:08;;;;;;;;;34.00;27.50;;;;;;;;5043253;28;45514;-67
2023/12/02 04:09:33;;;;;;;;;29.75;24.75;;;;;;;;5041771;28;47050;-71
2023/12/02 04:11:58;;;;;;;;;28.00;25.33;;;;;;;;5049937;28;45213;-68
2023/12/02 04:14:23;;;;;;;;;30.33;25.00;;;;;;;;5048806;28;45493;-68
2023/12/02 04:16:48;;;;;;;;;34.50;25.50;;;;;;;;5047564;28;45830;-67
2023/12/02 04:19:14;;;;;;;;;33.00;21.75;;;;;;;;5037016;28;45512;-69
2023/12/02 04:21:44;;;;;;;;;36.00;24.75;;;;;;;;5041583;28;45463;-69
2023/12/02 04:24:10;;;;;;;;;34.50;26.50;;;;;;;;5041295;28;45525;-68
2023/12/02 04:26:38;;;;;;;;;32.50;25.25;;;;;;;;5038979;28;46180;-71
2023/12/02 04:29:03;;;;;;;;;36.75;25.00;;;;;;;;5047243;28;45386;-68
2023/12/02 04:31:29;;;;;;;;;30.75;25.75;;;;;;;;5039573;28;45289;-71
2023/12/02 04:33:54;;;;;;;;;37.75;27.25;;;;;;;;5044944;28;45605;-68
2023/12/02 04:36:20;;;;;;;;;41.00;29.33;;;;;;;;5042958;28;47373;-72
2023/12/02 04:38:45;;;;;;;;;34.67;26.67;;;;;;;;5040453;28;45654;-68
2023/12/02 04:41:10;;;;;;;;;34.67;27.00;;;;;;;;5049144;28;45351;-69
2023/12/02 04:43:35;;;;;;;;;39.00;27.75;;;;;;;;5036366;28;45311;-67
2023/12/02 04:46:00;;;;;;;;;39.67;27.67;;;;;;;;5035315;28;46587;-68
2023/12/02 04:48:26;;;;;;;;;36.33;28.33;;;;;;;;5034578;28;45410;-68
2023/12/02 04:50:51;;;;;;;;;46.50;34.00;;;;;;;;5036033;28;45435;-68
2023/12/02 04:53:16;;;;;;;;;33.67;24.33;;;;;;;;5034921;28;46412;-68
2023/12/02 04:55:41;;;;;;;;;31.00;23.25;;;;;;;;5035226;28;45354;-68
2023/12/02 04:58:07;;;;;;;;;37.75;30.25;;;;;;;;5036161;28;45323;-69
2023/12/02 05:00:32;;;;;;;;;38.67;25.33;;;;;;;;5035403;28;45657;-71
2023/12/02 05:02:57;;;;;;;;;37.25;23.75;;;;;;;;5035769;28;45476;-69
2023/12/02 05:05:22;;;;;;;;;42.00;29.50;;;;;;;;5035991;28;45582;-71
2023/12/02 05:07:47;;;;;;;;;38.33;26.00;;;;;;;;5035091;28;45415;-70
2023/12/02 05:10:13;;;;;;;;;34.67;31.33;;;;;;;;5020065;28;45344;-71
2023/12/02 05:12:38;;;;;;;;;39.75;30.00;;;;;;;;5033740;28;45673;-68
2023/12/02 05:15:04;;;;;;;;;44.75;28.50;;;;;;;;5035353;28;45176;-69
2023/12/02 05:17:29;;;;;;;;;40.75;30.75;;;;;;;;5035526;28;45581;-71
2023/12/02 05:19:54;;;;;;;;;38.50;27.25;;;;;;;;5035363;28;45396;-68
2023/12/02 05:22:19;;;;;;;;;36.75;25.50;;;;;;;;5035508;28;45196;-68
2023/12/02 05:24:45;;;;;;;;;37.50;28.25;;;;;;;;5035032;28;47495;-69
2023/12/02 05:27:11;;;;;;;;;50.00;30.25;;;;;;;;5034850;28;45312;-72
2023/12/02 05:29:36;;;;;;;;;36.25;26.50;;;;;;;;5035357;28;45507;-69
2023/12/02 05:32:01;;;;;;;;;39.00;28.00;;;;;;;;5035183;28;45644;-69
2023/12/02 05:34:26;;;;;;;;;48.33;32.00;;;;;;;;5034772;28;47278;-68
2023/12/02 05:36:51;;;;;;;;;34.33;27.00;;;;;;;;5035105;28;45287;-69
2023/12/02 05:39:17;;;;;;;;;50.33;28.67;;;;;;;;5034755;28;45479;-68
2023/12/02 05:41:45;;;;;;;;;45.00;34.67;;;;;;;;5035234;28;45654;-68
2023/12/02 05:44:10;;;;;;;;;37.75;27.25;;;;;;;;5045417;28;46020;-68
2023/12/02 05:46:36;;;;;;;;;44.50;28.25;;;;;;;;5035817;28;45450;-69
2023/12/02 05:49:01;;;;;;;;;49.00;32.75;;;;;;;;5042135;28;45399;-68
2023/12/02 05:51:26;;;;;;;;;41.67;28.67;;;;;;;;5044039;28;45137;-70
2023/12/02 05:53:52;;;;;;;;;37.00;33.33;;;;;;;;5044733;28;46574;-68
2023/12/02 05:56:17;;;;;;;;;45.00;26.00;;;;;;;;5041275;28;45589;-68
2023/12/02 05:58:43;;;;;;;;;53.50;27.25;;;;;;;;5042513;28;45316;-71
2023/12/02 06:01:08;;;;;;;;;34.33;23.33;;;;;;;;5039586;28;45387;-68
2023/12/02 06:03:33;;;;;;;;;42.67;28.33;;;;;;;;5039061;28;45765;-68
2023/12/02 06:05:58;;;;;;;;;38.67;30.00;;;;;;;;5040586;28;45458;-68
2023/12/02 06:08:23;;;;;;;;;47.67;35.00;;;;;;;;5039141;28;45437;-70
2023/12/02 06:10:49;;;;;;;;;45.00;30.25;;;;;;;;5039197;28;45487;-69
2023/12/02 06:13:14;;;;;;;;;41.00;23.75;;;;;;;;5044215;28;45394;-68
2023/12/02 06:15:39;;;;;;;;;39.67;33.33;;;;;;;;5039353;28;45356;-68
2023/12/02 06:18:04;;;;;;;;;37.33;25.67;;;;;;;;5042179;28;45371;-71
2023/12/02 06:20:29;;;;;;;;;47.67;27.67;;;;;;;;5042775;28;45300;-71
2023/12/02 06:22:54;;;;;;;;;43.33;31.33;;;;;;;;5039270;28;46818;-68
2023/12/02 06:25:20;;;;;;;;;48.00;33.67;;;;;;;;5039194;28;45396;-72
2023/12/02 06:27:45;;;;;;;;;45.75;31.75;;;;;;;;5044220;28;45248;-70
2023/12/02 06:30:11;;;;;;;;;43.67;31.33;;;;;;;;5039105;28;45554;-70
2023/12/02 06:32:37;;;;;;;;;48.75;34.00;;;;;;;;5043057;28;46227;-70
2023/12/02 06:35:02;;;;;;;;;37.75;29.00;;;;;;;;5046887;28;45228;-72
2023/12/02 06:37:27;;;;;;;;;47.50;30.00;;;;;;;;5038973;28;45459;-68
2023/12/02 06:39:52;;;;;;;;;50.00;33.67;;;;;;;;5043825;28;45607;-71
2023/12/02 06:42:17;;;;;;;;;33.33;29.00;;;;;;;;5040017;28;45547;-68
2023/12/02 06:44:43;;;;;;;;;39.00;33.00;;;;;;;;5049221;28;45373;-68
2023/12/02 06:47:08;;;;;;;;;50.50;36.50;;;;;;;;5040972;28;45264;-70
2023/12/02 06:49:33;;;;;;;;;43.00;31.75;;;;;;;;5050146;28;45447;-70
2023/12/02 06:51:58;;;;;;;;;43.67;31.00;;;;;;;;5040309;28;46092;-72
2023/12/02 06:54:24;;;;;;;;;33.50;28.00;;;;;;;;5051034;28;45343;-68
2023/12/02 06:56:49;;;;;;;;;47.50;31.25;;;;;;;;5034736;28;46686;-68
2023/12/02 06:59:14;;;;;;;;;28.75;18.25;;;;;;;;5025020;28;45702;-68
2023/12/02 07:01:40;;;;;;;;;43.00;27.00;;;;;;;;5039079;28;45658;-68
2023/12/02 07:04:06;;;;;;;;;48.50;35.75;;;;;;;;5045039;28;45411;-68
2023/12/02 07:06:32;;;;;;;;;34.25;28.00;;;;;;;;5047398;28;45514;-68
2023/12/02 07:08:57;;;;;;;;;35.25;28.00;;;;;;;;5044836;28;45347;-69
2023/12/02 07:11:22;;;;;;;;;42.33;32.67;;;;;;;;5042795;28;46294;-68
2023/12/02 07:13:48;;;;;;;;;46.75;28.00;;;;;;;;5043709;28;45470;-68
2023/12/02 07:16:13;;;;;;;;;39.25;28.00;;;;;;;;5047365;28;45218;-68
2023/12/02 07:18:39;;;;;;;;;39.00;28.75;;;;;;;;5048963;28;45391;-68
2023/12/02 07:21:05;;;;;;;;;33.75;28.50;;;;;;;;5044941;28;45742;-68
2023/12/02 07:23:30;;;;;;;;;33.50;26.25;;;;;;;;5051579;28;45524;-69
2023/12/02 07:25:56;;;;;;;;;42.33;30.33;;;;;;;;5046476;28;45500;-68
2023/12/02 07:28:21;;;;;;;;;52.00;33.00;;;;;;;;5045630;28;45478;-68
2023/12/02 07:30:49;;;;;;;;;26.25;16.25;;;;;;;;5046095;28;46641;-70
2023/12/02 07:33:15;;;;;;;;;41.00;31.00;;;;;;;;5041618;28;45525;-68
2023/12/02 07:35:40;;;;;;;;;40.75;29.75;;;;;;;;5042369;28;45451;-69
2023/12/02 07:38:05;;;;;;;;;61.00;37.75;;;;;;;;5027750;28;45458;-68
2023/12/02 07:40:31;;;;;;;;;40.75;37.25;;;;;;;;5045906;28;45405;-72
2023/12/02 07:42:56;;;;;;;;;46.00;29.50;;;;;;;;5039938;28;45344;-72
2023/12/02 07:45:21;;;;;;;;;44.33;29.67;;;;;;;;5041285;28;46061;-72
2023/12/02 07:47:46;;;;;;;;;52.33;34.67;;;;;;;;5045974;28;46107;-72
2023/12/02 07:50:11;;;;;;;;;49.67;33.67;;;;;;;;5040507;28;46747;-71
2023/12/02 07:52:37;;;;;;;;;43.25;33.50;;;;;;;;5045571;28;45606;-72
2023/12/02 07:55:02;;;;;;;;;45.00;33.33;;;;;;;;5041792;28;45696;-73
2023/12/02 07:57:27;;;;;;;;;57.25;39.25;;;;;;;;5028029;28;45639;-72
2023/12/02 07:59:52;;;;;;;;;44.00;31.33;;;;;;;;5039829;28;46398;-73
2023/12/02 08:02:19;;;;;;;;;49.25;38.50;;;;;;;;5042763;28;45471;-72
2023/12/02 08:04:44;;;;;;;;;53.00;39.67;;;;;;;;5044314;28;45537;-72
2023/12/02 08:07:09;;;;;;;;;55.25;34.75;;;;;;;;5020985;28;45364;-71
2023/12/02 08:09:34;;;;;;;;;41.25;33.50;;;;;;;;5041059;28;45955;-72
2023/12/02 08:12:00;;;;;;;;;59.50;43.00;;;;;;;;5045620;28;45438;-72
2023/12/02 08:14:25;;;;;;;;;64.00;46.50;;;;;;;;5042137;28;45478;-72
2023/12/02 08:16:50;;;;;;;;;39.00;25.33;;;;;;;;5034960;28;47065;-74
2023/12/02 08:19:16;;;;;;;;;44.33;35.33;;;;;;;;5045252;28;45392;-73
2023/12/02 08:21:41;;;;;;;;;59.50;40.00;;;;;;;;5045386;28;45439;-70
2023/12/02 08:24:06;;;;;;;;;56.50;42.75;;;;;;;;5044106;28;45486;-70
2023/12/02 08:26:32;;;;;;;;;46.50;40.25;;;;;;;;5038931;28;45602;-69
2023/12/02 08:28:57;;;;;;;;;58.00;41.33;;;;;;;;5052954;28;45689;-68
2023/12/02 08:31:23;;;;;;;;;62.00;38.75;;;;;;;;5038766;28;45556;-70
2023/12/02 08:33:48;;;;;;;;;62.50;43.25;;;;;;;;5039358;28;45550;-68
2023/12/02 08:36:13;;;;;;;;;60.67;39.00;;;;;;;;5049061;28;45364;-68
2023/12/02 08:38:38;;;;;;;;;61.33;45.67;;;;;;;;5039945;28;45558;-69
2023/12/02 08:41:04;;;;;;;;;61.00;43.33;;;;;;;;5043511;28;45387;-69
2023/12/02 08:43:29;;;;;;;;;47.50;34.75;;;;;;;;5085757;22;45638;-69
2023/12/02 08:45:54;;;;;;;;;54.00;36.67;;;;;;;;5052135;28;45438;-67
2023/12/02 08:48:19;;;;;;;;;71.67;36.67;;;;;;;;5053267;28;45688;-69
2023/12/02 08:50:45;;;;;;;;;54.33;44.00;;;;;;;;5055659;28;45387;-69
2023/12/02 08:53:10;;;;;;;;;49.00;39.75;;;;;;;;5055292;28;45431;-68
2023/12/02 08:55:35;;;;;;;;;56.33;36.33;;;;;;;;5053098;28;46746;-68
2023/12/02 08:58:00;;;;;;;;;58.33;41.33;;;;;;;;5056136;28;45331;-68
2023/12/02 09:00:26;;;;;;;;;49.00;36.00;;;;;;;;5053005;28;45486;-67
2023/12/02 09:02:51;;;;;;;;;67.33;43.00;;;;;;;;5051473;28;45400;-68
2023/12/02 09:05:16;;;;;;;;;47.50;35.50;;;;;;;;5052079;28;45506;-67
2023/12/02 09:07:41;;;;;;;;;59.67;44.00;;;;;;;;5052181;28;45745;-66
2023/12/02 09:10:08;;;;;;;;;37.00;30.75;;;;;;;;5053819;28;45418;-69
2023/12/02 09:12:33;;;;;;;;;65.25;44.50;;;;;;;;5047775;28;45246;-70
2023/12/02 09:15:09;;;;;;;;;63.75;41.75;;;;;;;;5054740;28;45434;-70
2023/12/02 09:18:03;;;;;;;;;66.50;43.25;;;;;;;;5045504;28;47372;-69
2023/12/02 09:20:38;;;;;;;;;55.50;41.25;;;;;;;;5033818;28;60476;-69
2023/12/02 09:23:03;;;;;;;;;37.75;32.25;;;;;;;;5049588;28;45216;-69
2023/12/02 09:25:28;;;;;;;;;42.00;30.00;;;;;;;;5052651;28;45470;-69
2023/12/02 09:28:06;;;;;;;;;52.25;36.75;;;;;;;;5032502;28;46149;-70
2023/12/02 09:30:31;;;;;;;;;60.25;36.25;;;;;;;;5051214;28;45465;-70
2023/12/02 09:32:57;;;;;;;;;59.75;39.75;;;;;;;;5052136;28;45472;-69
2023/12/02 09:35:22;;;;;;;;;41.25;33.50;;;;;;;;5053489;28;45504;-70
2023/12/02 09:37:57;;;;;;;;;41.00;35.33;;;;;;;;5033271;28;47422;-70
2023/12/02 09:40:25;;;;;;;;;43.50;33.75;;;;;;;;5046582;28;45469;-72
2023/12/02 09:42:54;;;;;;;;;62.75;36.00;;;;;;;;5051879;28;45485;-70
2023/12/02 09:45:36;;;;;;;;;54.75;37.25;;;;;;;;5050895;28;45450;-69
2023/12/02 09:48:05;;;;;;;;;52.50;30.75;;;;;;;;5054098;28;45858;-69
2023/12/02 09:50:33;;;;;;;;;53.25;43.25;;;;;;;;5054097;28;45402;-69
2023/12/02 09:53:22;;;;;;;;;55.50;42.50;;;;;;;;5055400;28;45497;-70
2023/12/02 09:55:53;;;;;;;;;62.75;41.50;;;;;;;;5038925;28;45782;-68
2023/12/02 09:58:22;;;;;;;;;57.50;41.00;;;;;;;;5047099;28;46050;-69
2023/12/02 10:00:53;;;;;;;;;64.75;43.00;;;;;;;;5051412;28;45304;-69
2023/12/02 10:03:22;;;;;;;;;57.25;38.00;;;;;;;;5053311;28;45340;-70
2023/12/02 10:05:59;;;;;;;;;54.25;42.75;;;;;;;;5054421;28;45621;-68
2023/12/02 10:08:29;;;;;;;;;43.50;33.00;;;;;;;;5052265;28;46479;-69
2023/12/02 10:11:03;;;;;;;;;62.00;36.75;;;;;;;;5046882;28;45556;-70
2023/12/02 10:13:31;;;;;;;;;47.75;36.00;;;;;;;;5046791;28;47163;-68
2023/12/02 10:15:57;;;;;;;;;61.75;42.25;;;;;;;;5051139;28;45578;-68
2023/12/02 10:18:29;;;;;;;;;52.50;38.75;;;;;;;;5052999;28;46441;-68
2023/12/02 10:21:00;;;;;;;;;64.50;41.75;;;;;;;;5053799;28;45493;-68
2023/12/02 10:23:32;;;;;;;;;64.00;43.00;;;;;;;;5049969;28;45830;-68
2023/12/02 10:26:00;;;;;;;;;62.00;40.00;;;;;;;;5052578;28;45444;-70
2023/12/02 10:28:41;;;;;;;;;53.75;35.25;;;;;;;;5054708;28;46393;-70
2023/12/02 10:31:06;;;;;;;;;43.50;41.25;;;;;;;;5052906;28;46589;-68
2023/12/02 10:33:31;;;;;;;;;50.25;41.00;;;;;;;;5044193;28;45422;-69
2023/12/02 10:36:01;;;;;;;;;44.67;42.00;;;;;;;;5051418;28;45677;-70
2023/12/02 10:38:32;;;;;;;;;48.25;34.25;;;;;;;;5054053;28;46534;-70
2023/12/02 10:41:00;;;;;;;;;61.50;41.25;;;;;;;;5051670;28;45576;-71
2023/12/02 10:43:33;;;;;;;;;49.75;37.50;;;;;;;;5049620;28;45538;-70
2023/12/02 10:45:58;;;;;;;;;60.50;35.50;;;;;;;;5057932;28;45522;-69
2023/12/02 10:48:24;;;;;;;;;54.50;38.25;;;;;;;;5051759;28;46516;-68
2023/12/02 10:50:49;;;;;;;;;53.25;39.75;;;;;;;;5053026;28;46107;-68
2023/12/02 10:53:19;;;;;;;;;52.25;39.25;;;;;;;;5054866;28;45503;-69
2023/12/02 10:55:47;;;;;;;;;60.50;37.25;;;;;;;;5040097;28;45581;-69
2023/12/02 10:58:13;;;;;;;;;48.25;37.75;;;;;;;;5039539;28;46587;-69
2023/12/02 11:00:39;;;;;;;;;55.25;40.75;;;;;;;;5057241;28;45240;-69
2023/12/02 11:03:13;;;;;;;;;54.75;36.50;;;;;;;;5039846;28;45485;-70
2023/12/02 11:05:45;;;;;;;;;47.50;32.75;;;;;;;;5057819;28;45398;-69
2023/12/02 11:08:21;;;;;;;;;40.00;32.50;;;;;;;;5056825;28;46775;-68
2023/12/02 11:10:47;;;;;;;;;52.75;39.50;;;;;;;;5057116;28;45491;-71
2023/12/02 11:13:19;;;;;;;;;52.00;38.00;;;;;;;;5057939;28;45363;-71
2023/12/02 11:15:44;;;;;;;;;49.50;38.75;;;;;;;;5052979;28;45633;-71
2023/12/02 11:18:11;;;;;;;;;39.67;28.67;;;;;;;;5049804;28;45656;-71
2023/12/02 11:20:36;;;;;;;;;56.50;40.75;;;;;;;;5034081;28;45271;-69
2023/12/02 11:23:18;;;;;;;;;62.50;42.50;;;;;;;;5055069;28;45498;-69
2023/12/02 11:25:49;;;;;;;;;32.75;24.50;;;;;;;;5056615;28;45508;-69
2023/12/02 11:28:20;;;;;;;;;50.75;40.50;;;;;;;;5057174;28;47419;-70
2023/12/02 11:30:52;;;;;;;;;55.25;34.00;;;;;;;;5050807;28;45356;-71
2023/12/02 11:33:32;;;;;;;;;32.75;18.50;;;;;;;;5057756;28;45469;-70
2023/12/02 11:35:58;;;;;;;;;52.75;39.25;;;;;;;;5056578;28;45384;-69
2023/12/02 11:38:27;;;;;;;;;46.67;35.67;;;;;;;;5055413;28;45769;-69
2023/12/02 11:41:10;;;;;;;;;54.25;40.25;;;;;;;;5057133;28;45498;-69
2023/12/02 11:43:36;;;;;;;;;43.50;31.25;;;;;;;;5049561;28;45490;-70
2023/12/02 11:46:05;;;;;;;;;45.50;31.50;;;;;;;;5056475;28;45661;-69
2023/12/02 11:48:39;;;;;;;;;48.50;31.75;;;;;;;;5054463;28;46736;-69
2023/12/02 11:51:22;;;;;;;;;47.75;33.75;;;;;;;;5057142;28;45442;-69
2023/12/02 11:54:09;;;;;;;;;35.25;21.00;;;;;;;;5051370;28;45466;-70
2023/12/02 11:56:35;;;;;;;;;41.00;28.75;;;;;;;;5056776;28;45327;-71
2023/12/02 11:59:14;;;;;;;;;39.00;27.50;;;;;;;;5056332;28;45633;-69
2023/12/02 12:01:42;;;;;;;;;37.75;25.00;;;;;;;;5056865;28;45467;-70
2023/12/02 12:04:13;;;;;;;;;39.75;27.00;;;;;;;;5056258;28;45283;-68
2023/12/02 12:06:41;;;;;;;;;48.25;30.50;;;;;;;;5056721;28;45478;-68
2023/12/02 12:09:19;;;;;;;;;39.75;30.00;;;;;;;;5056627;28;45311;-69
2023/12/02 12:11:45;;;;;;;;;50.25;35.50;;;;;;;;5057192;28;45370;-68
2023/12/02 12:14:12;;;;;;;;;35.50;25.75;;;;;;;;5055808;28;45461;-68
2023/12/02 12:16:38;;;;;;;;;47.25;36.00;;;;;;;;5053259;28;45458;-68
2023/12/02 12:19:03;;;;;;;;;45.75;35.25;;;;;;;;5053225;28;47466;-69
2023/12/02 12:21:28;;;;;;;;;41.33;30.33;;;;;;;;5047941;28;45462;-70
2023/12/02 12:23:54;;;;;;;;;47.33;34.33;;;;;;;;5054600;28;45569;-69
2023/12/02 12:26:19;;;;;;;;;37.33;30.00;;;;;;;;5054991;28;45479;-71
2023/12/02 12:28:44;;;;;;;;;46.25;31.75;;;;;;;;5055022;28;46734;-70
2023/12/02 12:31:09;;;;;;;;;44.75;27.50;;;;;;;;5051125;28;45379;-72
2023/12/02 12:33:41;;;;;;;;;28.50;26.50;;;;;;;;5054887;28;45732;-70
2023/12/02 12:36:08;;;;;;;;;36.25;24.50;;;;;;;;5053384;28;45348;-73
2023/12/02 12:38:34;;;;;;;;;27.50;24.50;;;;;;;;5052298;28;45916;-71
2023/12/02 12:40:59;;;;;;;;;45.33;33.00;;;;;;;;5050548;28;45541;-71
2023/12/02 12:43:25;;;;;;;;;31.25;28.25;;;;;;;;5051146;28;45470;-68
2023/12/02 12:45:54;;;;;;;;;22.25;20.00;;;;;;;;5055351;28;45626;-68
2023/12/02 12:48:26;;;;;;;;;34.25;22.00;;;;;;;;5049739;28;47323;-69
2023/12/02 12:50:53;;;;;;;;;36.50;28.00;;;;;;;;5049428;28;45510;-70
2023/12/02 12:53:22;;;;;;;;;27.75;20.00;;;;;;;;5049848;28;45447;-69
2023/12/02 12:55:54;;;;;;;;;23.25;19.75;;;;;;;;5051345;28;46096;-70
2023/12/02 12:58:21;;;;;;;;;27.75;23.25;;;;;;;;5053396;28;46534;-68
2023/12/02 13:00:47;;;;;;;;;21.75;13.00;;;;;;;;5049940;28;45426;-69
2023/12/02 13:03:31;;;;;;;;;14.50;12.25;;;;;;;;5051260;28;45534;-68
2023/12/02 13:06:14;;;;;;;;;17.75;16.25;;;;;;;;5047225;28;45686;-70
2023/12/02 13:08:48;;;;;;;;;23.75;23.00;;;;;;;;5054140;28;46797;-69
2023/12/02 13:11:18;;;;;;;;;23.00;17.75;;;;;;;;5052672;28;45465;-69
2023/12/02 13:13:47;;;;;;;;;27.25;17.00;;;;;;;;5050273;28;45546;-70
2023/12/02 13:16:13;;;;;;;;;32.75;18.75;;;;;;;;5054631;28;46130;-69
2023/12/02 13:18:38;;;;;;;;;19.25;13.75;;;;;;;;5053964;28;46552;-69
2023/12/02 13:21:04;;;;;;;;;16.75;12.75;;;;;;;;5054182;28;45415;-69
2023/12/02 13:23:30;;;;;;;;;22.75;17.00;;;;;;;;5054251;28;45532;-69
2023/12/02 13:25:56;;;;;;;;;17.50;14.25;;;;;;;;5054651;28;45510;-69
2023/12/02 13:28:25;;;;;;;;;35.75;23.00;;;;;;;;5054415;28;46655;-70
2023/12/02 13:30:52;;;;;;;;;26.25;17.25;;;;;;;;5037095;28;45875;-68
2023/12/02 13:33:17;;;;;;;;;24.00;18.75;;;;;;;;5054845;28;45706;-69
2023/12/02 13:35:43;;;;;;;;;20.33;16.33;;;;;;;;5052157;28;46734;-68
2023/12/02 13:38:11;;;;;;;;;26.25;20.00;;;;;;;;5043888;28;46672;-68
2023/12/02 13:40:36;;;;;;;;;34.50;23.25;;;;;;;;5050067;28;45398;-69
2023/12/02 13:43:05;;;;;;;;;27.33;19.67;;;;;;;;5052044;28;45467;-70
2023/12/02 13:45:32;;;;;;;;;34.50;24.00;;;;;;;;5051954;28;45363;-68
2023/12/02 13:48:08;;;;;;;;;30.00;24.50;;;;;;;;5054057;28;46184;-68
2023/12/02 13:50:48;;;;;;;;;29.25;24.25;;;;;;;;5054149;28;45439;-69
2023/12/02 13:53:25;;;;;;;;;30.50;19.00;;;;;;;;5051654;28;45347;-68
2023/12/02 13:56:00;;;;;;;;;25.50;17.00;;;;;;;;5053177;28;45554;-69
2023/12/02 13:58:31;;;;;;;;;24.75;14.00;;;;;;;;5055587;28;46559;-68
2023/12/02 14:00:59;;;;;;;;;32.75;20.25;;;;;;;;5055915;28;45296;-68
2023/12/02 14:03:24;;;;;;;;;42.50;29.00;;;;;;;;5056044;28;45356;-69
2023/12/02 14:05:58;;;;;;;;;29.75;21.25;;;;;;;;5055313;28;45577;-69
2023/12/02 14:08:27;;;;;;;;;26.00;22.00;;;;;;;;5053913;28;47280;-68
2023/12/02 14:10:53;;;;;;;;;29.25;22.75;;;;;;;;5055685;28;45408;-69
2023/12/02 14:13:20;;;;;;;;;23.75;18.50;;;;;;;;5054971;28;45404;-69